Terminal Aerodrome Forecast
Issued by NWS

Home | Current Version | Previous Version | Text Only | Print | Product List | Glossary On
Versions: 1 2 3 4 5 6 7 8 9 10 11 12 13 14 15 16 17 18 19 20 21 22 23 24
193
FTUS46 KMTR 260529
TAFSFO
TAF
KSFO 260529Z 2606/2712 30007KT P6SM FEW011
     FM260800 26006KT P6SM SCT015
     FM261100 25005KT P6SM BKN010
     FM261700 VRB04KT P6SM FEW010
     FM262100 30012KT P6SM FEW010
     FM270300 28010KT P6SM FEW015=

USA.gov is the U.S. government's official web portal to all federal, state and local government web resources and services.